Time;durP1;ratioP1;P1;durP2;ratioP2;P2;SDS_P1;SDS_P2;PMS_P1;PMS_P2;Temp;Humidity;BMP_temperature;BMP_pressure;BME280_temperature;BME280_humidity;BME280_pressure;Samples;Min_cycle;Max_cycle;Signal;HPM_P1;HPM_P2
2022/11/06 00:00:35;;;;;;;;;8.33;8.00;;;;;10.87;69.24;101098.88;4980065;28;45282;-71
2022/11/06 00:03:01;;;;;;;;;11.00;9.67;;;;;11.67;69.37;101228.28;4979380;28;46175;-72
2022/11/06 00:08:11;;;;;;;;;7.67;6.33;;;;;11.61;69.57;101211.03;4979405;28;45235;-69
2022/11/06 00:10:37;;;;;;;;;9.00;7.33;;;;;11.54;69.88;101191.28;4977683;28;46214;-69
2022/11/06 00:13:02;;;;;;;;;6.00;6.00;;;;;11.60;70.01;101201.34;4980470;28;46650;-70
2022/11/06 00:15:28;;;;;;;;;9.33;9.00;;;;;11.50;69.58;101195.19;4981563;28;45233;-69
2022/11/06 00:17:53;;;;;;;;;11.00;9.67;;;;;9.31;69.73;100841.69;4978146;28;45323;-70
2022/11/06 00:20:18;;;;;;;;;8.67;8.67;;;;;9.25;69.65;100833.41;4979704;28;45354;-73
2022/11/06 00:22:44;;;;;;;;;7.33;6.67;;;;;11.64;69.83;101234.75;4979392;28;45598;-71
2022/11/06 00:25:10;;;;;;;;;9.67;8.33;;;;;11.51;69.65;101210.19;4995358;28;45354;-71
2022/11/06 00:27:37;;;;;;;;;6.00;6.00;;;;;11.61;69.30;101218.19;4978145;28;45513;-69
2022/11/06 00:30:04;;;;;;;;;6.00;5.33;;;;;11.40;69.18;101165.03;4979566;28;45546;-70
2022/11/06 00:32:29;;;;;;;;;8.00;8.00;;;;;11.76;68.76;101225.63;4977983;28;46690;-72
2022/11/06 00:34:55;;;;;;;;;9.00;8.33;;;;;11.63;68.79;101219.75;4979126;28;45249;-70
2022/11/06 00:37:20;;;;;;;;;8.00;6.00;;;;;11.66;68.70;101206.16;4978760;28;55405;-70
2022/11/06 00:39:45;;;;;;;;;10.67;10.00;;;;;11.50;68.94;101173.91;4979896;28;45227;-72
2022/11/06 00:42:11;;;;;;;;;4.00;0.00;;;;;11.81;68.98;101220.78;4980215;28;45630;-70
2022/11/06 00:44:36;;;;;;;;;8.00;7.00;;;;;11.73;68.74;101217.91;4978257;28;45541;-72
2022/11/06 00:47:01;;;;;;;;;9.00;7.33;;;;;11.36;69.52;101167.16;4978144;28;45500;-72
2022/11/06 00:49:27;;;;;;;;;6.00;5.00;;;;;11.69;69.46;101221.84;4978747;28;45465;-70
2022/11/06 00:51:52;;;;;;;;;10.00;9.00;;;;;11.46;69.02;101189.31;4976752;28;48279;-70
2022/11/06 00:54:18;;;;;;;;;6.67;6.67;;;;;11.68;69.12;101198.84;4977817;28;45474;-69
2022/11/06 00:56:43;;;;;;;;;8.00;8.00;;;;;11.72;69.46;101205.56;4978128;28;45290;-70
2022/11/06 00:59:11;;;;;;;;;8.00;6.00;;;;;11.59;68.81;101199.69;4979516;28;45235;-68
2022/11/06 01:01:42;;;;;;;;;9.00;8.00;;;;;11.66;69.17;101195.50;4980619;28;45557;-71
2022/11/06 01:04:20;;;;;;;;;8.00;6.33;;;;;11.61;69.51;101180.88;4977689;28;45501;-70
2022/11/06 01:06:47;;;;;;;;;7.00;7.00;;;;;11.28;69.34;101122.59;4978489;28;45302;-71
2022/11/06 01:09:17;;;;;;;;;9.00;7.00;;;;;11.46;68.83;101161.84;4978482;28;45485;-71
2022/11/06 01:11:44;;;;;;;;;10.33;8.00;;;;;11.74;69.23;101194.78;4978363;28;45743;-71
2022/11/06 01:14:12;;;;;;;;;6.00;6.00;;;;;11.61;68.94;101163.09;4980139;28;45336;-70
2022/11/06 01:16:38;;;;;;;;;6.33;6.00;;;;;11.71;68.63;101160.44;4978733;28;45616;-69
2022/11/06 01:19:04;;;;;;;;;7.00;7.00;;;;;11.80;68.69;101168.44;4980074;28;45607;-70
2022/11/06 01:21:32;;;;;;;;;10.33;5.67;;;;;11.41;68.97;101094.84;4978810;28;45849;-70
2022/11/06 01:24:00;;;;;;;;;6.67;6.00;;;;;11.67;68.74;101132.41;4978303;28;45351;-70
2022/11/06 01:26:27;;;;;;;;;9.33;6.33;;;;;11.82;68.96;101163.84;4977902;28;45508;-70
2022/11/06 01:28:53;;;;;;;;;4.00;4.00;;;;;11.79;68.88;101156.09;4975446;28;45726;-70
2022/11/06 01:31:21;;;;;;;;;7.00;6.00;;;;;11.54;68.97;101100.72;4993210;28;48078;-71
2022/11/06 01:33:46;;;;;;;;;7.67;6.33;;;;;11.21;68.14;101046.09;4978425;28;45266;-69
2022/11/06 01:36:13;;;;;;;;;6.33;5.00;;;;;11.54;68.62;101106.06;4977743;28;45734;-71
2022/11/06 01:38:44;;;;;;;;;8.67;4.00;;;;;11.65;68.08;101118.41;4993366;28;45533;-69
2022/11/06 01:41:12;;;;;;;;;5.67;4.00;;;;;11.75;68.41;101125.38;4977922;28;45845;-70
2022/11/06 01:43:49;;;;;;;;;5.33;4.67;;;;;12.02;67.45;101158.47;4977530;28;45343;-69
2022/11/06 01:46:20;;;;;;;;;7.00;7.00;;;;;11.99;67.98;101164.06;4978097;28;45447;-70
2022/11/06 01:48:51;;;;;;;;;5.00;5.00;;;;;12.10;67.72;101169.25;4977283;28;45515;-70
2022/11/06 01:51:17;;;;;;;;;6.00;6.00;;;;;12.01;68.04;101162.94;4993340;28;47722;-70
2022/11/06 01:53:43;;;;;;;;;5.67;5.33;;;;;11.99;67.76;101140.09;4979173;28;45266;-70
2022/11/06 01:56:12;;;;;;;;;6.33;6.00;;;;;11.61;68.13;101099.16;4977525;28;45577;-70
2022/11/06 01:58:41;;;;;;;;;10.00;7.33;;;;;11.89;67.84;101148.13;4977166;28;46116;-71
2022/11/06 02:01:07;;;;;;;;;5.33;5.33;;;;;11.55;68.06;101065.97;4977570;28;45781;-68
2022/11/06 02:03:34;;;;;;;;;8.00;7.00;;;;;12.04;67.68;101151.19;4977491;28;45295;-70
2022/11/06 02:06:01;;;;;;;;;5.33;5.00;;;;;12.04;67.78;101146.69;4978545;28;45452;-71
2022/11/06 02:08:27;;;;;;;;;6.00;6.00;;;;;11.65;67.67;101073.13;4976263;28;45319;-70
2022/11/06 02:10:52;;;;;;;;;6.00;5.00;;;;;12.00;67.74;101131.09;4991638;28;47718;-69
2022/11/06 02:13:20;;;;;;;;;6.00;6.00;;;;;12.11;67.58;101130.97;4978269;28;45377;-69
2022/11/06 02:16:14;;;;;;;;;9.33;7.00;;;;;12.03;68.04;101101.53;4977913;28;45431;-71
2022/11/06 02:19:00;;;;;;;;;8.00;5.67;;;;;11.77;67.46;101056.81;4977321;28;45614;-68
2022/11/06 02:21:38;;;;;;;;;7.00;5.67;;;;;12.06;67.65;101093.25;4977832;28;46875;-69
2022/11/06 02:24:12;;;;;;;;;6.00;6.00;;;;;12.06;67.81;101091.44;4978260;28;45294;-69
2022/11/06 02:27:11;;;;;;;;;7.67;6.33;;;;;12.09;67.21;101071.63;4993189;28;45463;-70
2022/11/06 02:29:47;;;;;;;;;3.33;3.33;;;;;12.06;67.35;101077.25;4975873;28;45381;-71
2022/11/06 02:32:45;;;;;;;;;9.00;6.00;;;;;12.03;67.73;101054.41;4977023;28;46504;-69
2022/11/06 02:35:46;;;;;;;;;4.00;4.00;;;;;12.04;67.09;101071.25;4966523;28;45765;-69
2022/11/06 02:38:27;;;;;;;;;8.67;7.33;;;;;11.75;67.74;101025.97;4975515;28;45288;-69
2022/11/06 02:40:57;;;;;;;;;6.00;6.00;;;;;11.64;67.73;101013.69;4977693;28;45488;-69
2022/11/06 02:43:38;;;;;;;;;6.00;6.00;;;;;10.85;67.96;100886.25;4976962;28;46861;-69
2022/11/06 02:46:14;;;;;;;;;7.00;4.67;;;;;11.69;67.75;101026.56;4975086;28;45526;-68
2022/11/06 02:48:46;;;;;;;;;7.67;6.33;;;;;11.96;67.64;101073.78;4968887;28;45479;-70
2022/11/06 02:51:17;;;;;;;;;7.67;7.67;;;;;11.88;68.00;101077.16;4987795;28;45564;-75
2022/11/06 02:53:45;;;;;;;;;7.33;5.33;;;;;11.90;67.81;101058.38;4957531;28;45613;-68
2022/11/06 02:56:16;;;;;;;;;4.33;3.67;;;;;11.98;68.00;101071.78;4970120;28;45537;-69
2022/11/06 02:58:53;;;;;;;;;6.00;6.00;;;;;11.93;67.59;101061.56;4992861;28;45196;-70
2022/11/06 03:01:26;;;;;;;;;9.00;5.00;;;;;11.71;67.30;101043.25;4975412;28;45385;-76
2022/11/06 03:03:56;;;;;;;;;0.67;0.00;;;;;11.85;67.47;101059.66;4967545;28;45286;-70
2022/11/06 03:06:44;;;;;;;;;6.00;5.00;;;;;11.86;67.86;101068.47;4973283;28;45509;-69
2022/11/06 03:09:17;;;;;;;;;5.67;4.33;;;;;11.59;68.09;101027.41;4970222;28;45528;-76
2022/11/06 03:11:46;;;;;;;;;6.00;6.00;;;;;11.84;67.85;101060.63;4979388;28;45414;-70
2022/11/06 03:14:18;;;;;;;;;5.00;5.00;;;;;11.83;67.93;101058.97;4972177;28;46650;-71
2022/11/06 03:16:53;;;;;;;;;10.00;10.00;;;;;11.84;67.64;101055.31;4978342;28;45373;-71
2022/11/06 03:19:32;;;;;;;;;10.33;8.33;;;;;11.50;67.83;100991.00;4980101;28;45364;-69
2022/11/06 03:22:02;;;;;;;;;6.00;6.00;;;;;11.80;67.52;101027.25;4980486;28;45307;-70
2022/11/06 03:24:36;;;;;;;;;4.67;4.67;;;;;11.75;68.09;101045.47;4977970;28;45751;-70
2022/11/06 03:27:10;;;;;;;;;7.00;7.00;;;;;11.68;67.98;101030.22;4977732;28;45613;-70
2022/11/06 03:29:50;;;;;;;;;7.00;7.00;;;;;11.50;67.83;101008.81;4978601;28;45442;-74
2022/11/06 03:32:31;;;;;;;;;5.00;5.00;;;;;11.76;67.93;101033.84;4979542;28;45345;-70
2022/11/06 03:35:11;;;;;;;;;5.67;5.67;;;;;11.78;67.78;101029.22;4979009;28;45575;-70
2022/11/06 03:37:50;;;;;;;;;6.00;6.00;;;;;11.63;68.09;101003.19;4977689;28;45503;-72
2022/11/06 03:40:20;;;;;;;;;6.33;5.67;;;;;11.72;67.67;101029.78;4973360;28;45492;-71
2022/11/06 03:42:51;;;;;;;;;0.00;0.00;;;;;11.40;68.40;100965.38;4963371;28;45542;-71
2022/11/06 03:45:23;;;;;;;;;6.00;6.00;;;;;10.88;70.09;100874.47;4992367;28;47562;-72
2022/11/06 03:47:59;;;;;;;;;4.00;4.00;;;;;10.91;68.12;100875.03;4966661;28;45496;-70
2022/11/06 03:50:28;;;;;;;;;11.00;6.00;;;;;11.68;67.99;101028.41;4974125;28;45381;-70
2022/11/06 03:53:01;;;;;;;;;5.00;5.00;;;;;11.46;68.00;100999.44;4972345;28;45544;-69
2022/11/06 03:55:34;;;;;;;;;7.33;6.00;;;;;11.50;68.21;101019.47;4974219;28;45707;-69
2022/11/06 03:58:09;;;;;;;;;6.33;6.00;;;;;11.36;68.34;100964.00;4976289;28;45485;-70
2022/11/06 04:00:39;;;;;;;;;4.67;4.67;;;;;11.62;68.09;100998.84;4988415;28;45237;-70
2022/11/06 04:03:13;;;;;;;;;8.33;7.33;;;;;11.65;68.00;100995.91;4961694;28;45548;-72
2022/11/06 04:05:52;;;;;;;;;9.00;7.00;;;;;10.57;67.86;100826.78;4976407;28;46622;-71
2022/11/06 04:13:59;;;;;;;;;5.67;5.67;;;;;11.23;68.09;100945.69;4979925;28;45441;-70
2022/11/06 04:16:33;;;;;;;;;5.33;5.00;;;;;11.25;67.96;100936.59;4979169;28;46633;-69
2022/11/06 04:19:00;;;;;;;;;8.67;6.00;;;;;11.58;68.21;100979.63;4979213;28;45548;-68
2022/11/06 04:21:38;;;;;;;;;5.00;5.00;;;;;11.56;68.02;100973.63;4979919;28;45340;-72
2022/11/06 04:27:23;;;;;;;;;6.33;6.00;;;;;11.55;67.79;100979.94;4979057;28;45689;-69
2022/11/06 04:30:00;;;;;;;;;6.00;4.67;;;;;11.50;67.98;100982.19;4971074;28;45517;-70
2022/11/06 04:32:58;;;;;;;;;6.33;6.00;;;;;11.56;67.72;100971.78;4977705;28;45316;-71
2022/11/06 04:35:42;;;;;;;;;8.00;6.00;;;;;11.54;67.94;100972.91;4956518;28;45237;-70
2022/11/06 04:38:20;;;;;;;;;7.33;5.00;;;;;11.26;67.98;100932.94;4977112;28;48798;-69
2022/11/06 04:41:01;;;;;;;;;7.00;6.00;;;;;11.55;68.00;100980.75;4978865;28;45294;-70
2022/11/06 04:43:38;;;;;;;;;4.67;4.67;;;;;11.55;67.79;100971.94;4979125;28;45362;-70
2022/11/06 04:46:08;;;;;;;;;4.00;4.00;;;;;11.36;67.65;100948.88;4977661;28;45525;-71
2022/11/06 04:48:35;;;;;;;;;4.33;4.00;;;;;11.55;68.05;100978.09;4976079;28;47646;-68
2022/11/06 04:51:03;;;;;;;;;6.67;5.00;;;;;11.41;67.50;100945.75;4978156;28;45267;-69
2022/11/06 04:53:30;;;;;;;;;7.00;5.00;;;;;11.59;67.76;100979.47;4978645;28;45327;-71
2022/11/06 04:56:05;;;;;;;;;7.67;5.00;;;;;11.43;67.60;100938.50;4979153;28;45330;-70
2022/11/06 04:58:30;;;;;;;;;4.00;4.00;;;;;11.49;67.56;100954.72;4993342;28;46980;-70
2022/11/06 05:00:55;;;;;;;;;7.67;5.00;;;;;11.43;67.18;100935.84;4993443;28;45509;-71
2022/11/06 05:03:20;;;;;;;;;4.00;4.00;;;;;11.59;67.47;100954.69;4978643;28;45469;-70
2022/11/06 05:05:46;;;;;;;;;9.00;5.33;;;;;10.77;67.04;100829.41;4978761;28;45235;-69
2022/11/06 05:08:14;;;;;;;;;6.33;4.67;;;;;10.73;67.36;100812.06;4978332;28;45701;-69
2022/11/06 05:10:40;;;;;;;;;6.00;4.67;;;;;11.32;67.57;100922.69;4978107;28;45303;-71
2022/11/06 05:13:06;;;;;;;;;7.00;6.00;;;;;11.27;67.68;100912.47;4978328;28;45337;-70
2022/11/06 05:15:31;;;;;;;;;3.00;3.00;;;;;11.51;67.39;100951.91;4993585;28;45337;-73
2022/11/06 05:17:57;;;;;;;;;4.67;4.67;;;;;11.42;67.61;100931.50;4976946;28;67942;-70
2022/11/06 05:20:22;;;;;;;;;6.00;5.00;;;;;10.80;67.01;100829.97;4976813;28;46353;-71
2022/11/06 05:22:57;;;;;;;;;7.00;6.00;;;;;10.58;67.40;100795.72;4977130;28;45339;-69
2022/11/06 05:25:34;;;;;;;;;8.00;6.67;;;;;11.48;67.73;100933.56;4994279;28;45536;-70
2022/11/06 05:28:00;;;;;;;;;3.00;3.00;;;;;11.26;67.28;100910.81;4977790;28;46710;-69
2022/11/06 05:30:26;;;;;;;;;1.33;1.33;;;;;10.93;67.21;100850.94;4978136;28;45323;-69
2022/11/06 05:32:52;;;;;;;;;2.67;2.33;;;;;11.33;67.86;100905.72;4978131;28;45288;-68
2022/11/06 05:35:19;;;;;;;;;5.00;5.00;;;;;11.45;67.28;100909.91;4983056;28;45457;-71
2022/11/06 05:37:45;;;;;;;;;4.00;4.00;;;;;11.26;67.73;100882.38;4995767;28;45724;-71
2022/11/06 05:40:11;;;;;;;;;4.67;4.00;;;;;11.37;67.26;100907.94;4995856;28;45431;-70
2022/11/06 05:42:38;;;;;;;;;4.00;4.00;;;;;11.21;67.74;100881.97;4996388;28;45393;-70
2022/11/06 05:45:05;;;;;;;;;7.00;6.00;;;;;11.15;67.91;100874.53;4996712;28;45468;-68
2022/11/06 05:47:30;;;;;;;;;6.00;4.67;;;;;11.32;67.74;100894.25;4989269;28;46897;-70
2022/11/06 05:49:55;;;;;;;;;6.67;5.67;;;;;11.31;67.31;100897.06;4977330;28;45455;-70
2022/11/06 05:52:21;;;;;;;;;6.33;5.00;;;;;11.39;67.28;100907.81;4978061;28;45227;-71
2022/11/06 05:54:46;;;;;;;;;6.67;5.67;;;;;11.21;67.04;100871.31;4978365;28;45394;-69
2022/11/06 05:57:11;;;;;;;;;6.67;5.00;;;;;10.74;67.06;100801.28;4978239;28;46298;-72
2022/11/06 05:59:37;;;;;;;;;9.67;7.00;;;;;11.38;67.48;100908.78;4980922;28;45441;-70
2022/11/06 06:02:03;;;;;;;;;6.33;5.33;;;;;11.41;67.22;100908.50;4978263;28;45373;-70
2022/11/06 06:04:28;;;;;;;;;8.00;7.00;;;;;11.30;67.16;100879.41;4977023;28;45323;-71
2022/11/06 06:06:53;;;;;;;;;7.67;7.33;;;;;11.42;67.73;100915.53;4975837;28;45874;-70
2022/11/06 06:09:19;;;;;;;;;8.00;6.33;;;;;11.04;66.97;100837.47;4977257;28;45293;-70
2022/11/06 06:11:44;;;;;;;;;7.33;6.33;;;;;11.34;67.33;100894.09;4992445;28;45504;-71
2022/11/06 06:14:09;;;;;;;;;6.00;6.00;;;;;10.54;67.45;100768.59;4977474;28;45563;-69
2022/11/06 06:16:35;;;;;;;;;5.00;4.33;;;;;11.13;67.33;100867.69;4977568;28;45795;-74
2022/11/06 06:19:00;;;;;;;;;4.00;4.00;;;;;11.26;67.39;100890.34;4975820;28;45892;-71
2022/11/06 06:21:26;;;;;;;;;10.33;6.33;;;;;10.91;67.69;100836.94;4990822;28;46269;-70
2022/11/06 06:23:51;;;;;;;;;5.33;4.33;;;;;10.94;67.38;100839.31;4976372;28;45312;-69
2022/11/06 06:26:16;;;;;;;;;6.00;6.00;;;;;11.00;67.63;100840.56;4992077;28;47653;-69
2022/11/06 06:28:42;;;;;;;;;8.00;8.00;;;;;10.96;67.56;100845.31;4975032;28;46257;-70
2022/11/06 06:31:08;;;;;;;;;6.67;5.33;;;;;10.19;67.50;100696.59;4977590;28;45393;-71
2022/11/06 06:33:34;;;;;;;;;6.67;5.00;;;;;11.02;67.75;100834.13;4976044;28;45330;-72
2022/11/06 06:36:03;;;;;;;;;12.67;6.33;;;;;11.21;67.46;100854.50;4976293;28;48257;-68
2022/11/06 06:38:28;;;;;;;;;7.67;6.00;;;;;11.01;67.24;100821.78;4992070;28;45777;-70
2022/11/06 06:40:54;;;;;;;;;5.00;5.00;;;;;10.91;67.61;100789.06;4977143;28;46062;-71
2022/11/06 06:43:19;;;;;;;;;7.00;7.00;;;;;9.02;67.26;100491.50;4976284;28;45416;-71
2022/11/06 06:45:44;;;;;;;;;6.33;6.33;;;;;11.03;67.29;100808.38;4976060;28;48540;-71
2022/11/06 06:48:10;;;;;;;;;5.67;5.33;;;;;11.18;67.53;100817.53;4980220;28;45310;-70
2022/11/06 06:50:35;;;;;;;;;4.67;4.67;;;;;11.30;67.20;100843.00;4981753;28;45537;-70
2022/11/06 06:53:01;;;;;;;;;7.00;5.33;;;;;11.31;67.05;100843.81;4982043;28;45589;-70
2022/11/06 06:55:26;;;;;;;;;7.67;7.67;;;;;11.19;66.91;100819.19;4979297;28;45867;-69
2022/11/06 06:57:56;;;;;;;;;7.33;6.00;;;;;11.34;66.82;100832.88;4995210;28;45443;-70
2022/11/06 07:00:21;;;;;;;;;7.67;6.67;;;;;11.11;67.14;100781.84;4995413;28;45344;-71
2022/11/06 07:02:47;;;;;;;;;4.00;4.00;;;;;11.31;66.79;100798.56;4980920;28;45659;-70
2022/11/06 07:05:12;;;;;;;;;6.33;6.33;;;;;11.27;66.43;100782.06;4979903;28;54841;-71
2022/11/06 07:07:37;;;;;;;;;8.00;5.00;;;;;11.04;67.00;100732.88;4979888;28;45514;-71
2022/11/06 07:10:03;;;;;;;;;5.00;5.00;;;;;11.39;66.87;100798.66;4979410;28;45524;-70
2022/11/06 07:12:28;;;;;;;;;7.00;6.00;;;;;10.65;66.38;100680.69;4980001;28;45208;-70
2022/11/06 07:14:54;;;;;;;;;4.67;4.67;;;;;11.41;66.78;100807.34;4979937;28;47941;-69
2022/11/06 07:17:19;;;;;;;;;5.67;5.00;;;;;11.26;66.45;100783.91;4994718;28;45480;-70
2022/11/06 07:19:44;;;;;;;;;6.67;6.67;;;;;11.47;66.47;100820.91;4980412;28;45406;-71
2022/11/06 07:22:10;;;;;;;;;7.00;6.00;;;;;11.39;66.74;100796.00;4995134;28;45307;-69
2022/11/06 07:24:35;;;;;;;;;4.00;4.00;;;;;11.52;66.33;100813.31;4994686;28;48512;-71
2022/11/06 07:27:00;;;;;;;;;5.33;4.33;;;;;11.46;66.72;100795.28;4979078;28;45500;-72
2022/11/06 07:29:26;;;;;;;;;5.67;5.00;;;;;11.55;66.72;100814.84;4980131;28;45457;-71
2022/11/06 07:31:51;;;;;;;;;8.67;8.67;;;;;11.37;66.48;100792.66;4979271;28;45464;-70
2022/11/06 07:34:17;;;;;;;;;4.00;3.00;;;;;11.54;66.75;100810.50;4978180;28;48360;-69
2022/11/06 07:36:42;;;;;;;;;5.33;5.00;;;;;11.52;65.92;100799.16;4979464;28;45480;-70
2022/11/06 07:39:07;;;;;;;;;6.33;5.00;;;;;11.62;66.37;100802.63;4995446;28;45552;-70
2022/11/06 07:41:33;;;;;;;;;5.33;4.00;;;;;11.61;66.01;100786.78;4994908;28;45263;-70
2022/11/06 07:43:58;;;;;;;;;6.00;4.67;;;;;11.59;66.07;100779.78;4979395;28;54098;-74
2022/11/06 07:46:23;;;;;;;;;6.33;5.33;;;;;11.67;65.85;100808.34;4980152;28;45402;-70
2022/11/06 07:48:49;;;;;;;;;5.33;5.33;;;;;11.67;66.03;100802.16;4995958;28;45591;-70
2022/11/06 07:51:14;;;;;;;;;5.00;5.00;;;;;11.68;65.67;100804.69;4994659;28;45348;-69
2022/11/06 07:53:40;;;;;;;;;4.00;4.00;;;;;11.43;65.96;100779.59;4979749;28;45543;-70
2022/11/06 07:56:07;;;;;;;;;9.67;4.33;;;;;10.88;65.01;100661.69;4978300;28;45623;-70
2022/11/06 07:58:33;;;;;;;;;7.00;5.00;;;;;11.46;65.41;100792.63;4977676;28;45334;-69
2022/11/06 08:00:58;;;;;;;;;5.00;5.00;;;;;11.27;65.59;100735.00;4979643;28;45399;-71
2022/11/06 08:03:25;;;;;;;;;5.67;5.00;;;;;11.61;65.25;100792.94;4979144;28;45508;-70
2022/11/06 08:05:50;;;;;;;;;3.00;3.00;;;;;10.74;65.45;100648.88;4979242;28;45306;-72
2022/11/06 08:08:17;;;;;;;;;4.33;4.00;;;;;11.27;65.26;100723.53;4977907;28;45518;-70
2022/11/06 08:10:42;;;;;;;;;6.00;6.00;;;;;11.70;65.19;100786.72;4979882;28;45429;-71
2022/11/06 08:13:12;;;;;;;;;5.33;4.00;;;;;11.75;65.16;100800.41;4995252;28;47702;-71
2022/11/06 08:15:39;;;;;;;;;4.00;4.00;;;;;11.73;65.59;100797.06;4978001;28;46524;-71
2022/11/06 08:18:09;;;;;;;;;4.67;4.67;;;;;10.89;64.92;100658.06;4980251;28;45253;-71
2022/11/06 08:20:37;;;;;;;;;7.00;5.00;;;;;11.67;64.94;100771.06;4979537;28;45410;-72
2022/11/06 08:23:05;;;;;;;;;3.67;3.67;;;;;11.75;65.05;100771.13;4979501;28;46779;-69
2022/11/06 08:25:32;;;;;;;;;6.33;5.00;;;;;11.81;64.58;100759.91;4976293;28;45486;-70
2022/11/06 08:27:59;;;;;;;;;4.67;4.67;;;;;11.20;64.31;100654.06;4980264;28;45418;-71
2022/11/06 08:30:26;;;;;;;;;6.00;4.33;;;;;11.53;65.10;100702.31;4980108;28;45345;-70
2022/11/06 08:32:52;;;;;;;;;6.00;4.00;;;;;11.92;65.47;100748.19;4979321;28;46846;-72
2022/11/06 08:35:17;;;;;;;;;5.00;3.67;;;;;11.37;65.66;100662.22;4979716;28;46071;-71
2022/11/06 08:37:43;;;;;;;;;3.67;3.67;;;;;11.69;65.67;100710.47;4979179;28;45525;-71
2022/11/06 08:40:09;;;;;;;;;5.67;4.00;;;;;11.41;65.96;100659.13;4991850;28;45410;-70
2022/11/06 08:42:34;;;;;;;;;4.33;4.33;;;;;11.44;65.25;100664.16;4974484;28;46429;-70
2022/11/06 08:45:00;;;;;;;;;5.00;5.00;;;;;12.01;65.96;100773.91;4976819;28;45210;-72
2022/11/06 08:47:26;;;;;;;;;5.00;5.00;;;;;11.78;66.21;100730.91;4978581;28;45353;-71
2022/11/06 08:49:51;;;;;;;;;4.67;4.00;;;;;11.78;66.53;100735.34;4979421;28;45310;-71
2022/11/06 08:52:16;;;;;;;;;5.67;3.00;;;;;11.96;67.02;100760.19;4975964;28;47072;-71
2022/11/06 08:54:42;;;;;;;;;5.00;5.00;;;;;12.02;67.25;100782.75;4978669;28;45332;-71
2022/11/06 08:57:07;;;;;;;;;3.00;3.00;;;;;12.01;67.63;100781.06;4977976;28;63960;-71
2022/11/06 08:59:32;;;;;;;;;8.00;7.00;;;;;11.90;67.53;100754.66;4979574;28;45406;-71
2022/11/06 09:01:58;;;;;;;;;6.67;5.00;;;;;12.03;67.52;100765.78;4978496;28;45553;-70
2022/11/06 09:04:24;;;;;;;;;4.33;4.00;;;;;11.96;67.67;100759.38;4976676;28;45475;-73
2022/11/06 09:06:49;;;;;;;;;10.00;7.33;;;;;11.87;67.76;100743.31;4977008;28;45510;-73
2022/11/06 09:09:15;;;;;;;;;5.33;5.33;;;;;11.56;67.56;100702.03;4977386;28;45468;-71
2022/11/06 09:11:40;;;;;;;;;4.00;4.00;;;;;11.95;67.75;100752.38;4992670;28;47035;-70
2022/11/06 09:14:05;;;;;;;;;6.00;5.33;;;;;11.16;68.00;100628.75;4979581;28;45376;-72
2022/11/06 09:16:31;;;;;;;;;4.00;4.00;;;;;11.57;68.19;100693.88;4976939;28;45389;-72
2022/11/06 09:18:58;;;;;;;;;6.00;5.67;;;;;11.42;67.94;100678.59;4978663;28;45278;-73
2022/11/06 09:21:23;;;;;;;;;3.67;3.67;;;;;11.93;68.10;100749.03;4979469;28;45570;-72
2022/11/06 09:23:49;;;;;;;;;5.00;5.00;;;;;11.80;68.73;100723.59;4976729;28;46395;-71
2022/11/06 09:26:14;;;;;;;;;5.33;5.33;;;;;11.77;68.85;100686.56;4992527;28;45307;-72
2022/11/06 09:28:40;;;;;;;;;7.00;4.33;;;;;11.19;68.85;100569.91;4977812;28;45326;-73
2022/11/06 09:31:06;;;;;;;;;5.00;4.00;;;;;12.08;69.15;100695.03;4976716;28;46330;-73
2022/11/06 09:33:31;;;;;;;;;7.33;6.33;;;;;12.05;69.30;100705.16;4978865;28;45257;-72
2022/11/06 09:35:56;;;;;;;;;8.67;6.33;;;;;12.00;68.71;100691.44;4977708;28;45456;-71
2022/11/06 09:38:22;;;;;;;;;8.00;6.00;;;;;11.56;69.29;100635.47;4977121;28;45387;-71
2022/11/06 09:41:00;;;;;;;;;8.33;7.33;;;;;11.02;69.31;100544.16;4975817;28;52784;-72
2022/11/06 09:43:37;;;;;;;;;6.67;6.67;;;;;11.93;69.57;100677.91;4975810;28;45446;-71
2022/11/06 09:46:14;;;;;;;;;7.67;6.33;;;;;11.63;69.47;100628.56;4977575;28;45499;-72
2022/11/06 09:48:45;;;;;;;;;6.00;6.00;;;;;11.77;69.45;100656.44;4983434;28;45625;-73
2022/11/06 09:51:37;;;;;;;;;4.00;4.00;;;;;11.94;70.21;100676.09;4977976;28;45693;-71
2022/11/06 09:54:26;;;;;;;;;9.00;8.00;;;;;11.14;70.31;100534.94;4966527;28;45330;-74
2022/11/06 09:57:01;;;;;;;;;8.67;7.67;;;;;11.93;70.42;100675.25;4974856;28;45449;-71
2022/11/06 09:59:26;;;;;;;;;8.00;7.33;;;;;11.72;69.99;100635.59;4960187;28;45524;-72
2022/11/06 10:01:55;;;;;;;;;6.00;5.00;;;;;11.78;70.49;100645.66;4970802;28;45417;-71
2022/11/06 10:04:41;;;;;;;;;9.00;6.00;;;;;11.99;70.70;100668.47;4976326;28;45394;-73
2022/11/06 10:07:23;;;;;;;;;6.33;5.33;;;;;11.81;70.50;100634.72;4972386;28;45373;-73
2022/11/06 10:09:49;;;;;;;;;7.00;7.00;;;;;11.68;71.28;100606.78;4974665;28;45620;-73
2022/11/06 10:12:31;;;;;;;;;4.33;3.33;;;;;11.86;71.26;100645.75;4966053;28;46626;-74
2022/11/06 10:15:26;;;;;;;;;5.67;5.67;;;;;12.07;70.86;100668.53;4969410;28;45512;-73
2022/11/06 10:18:04;;;;;;;;;5.33;5.00;;;;;11.55;71.47;100569.88;4966207;28;45442;-72
2022/11/06 10:20:50;;;;;;;;;9.33;9.33;;;;;11.03;70.92;100487.31;4971393;28;45337;-71
2022/11/06 10:23:29;;;;;;;;;11.00;8.67;;;;;11.85;70.95;100608.59;4968443;28;47936;-75
2022/11/06 10:26:05;;;;;;;;;12.67;10.67;;;;;11.12;71.15;100504.16;4974704;28;45588;-72
2022/11/06 10:29:00;;;;;;;;;7.33;6.00;;;;;11.73;71.00;100617.78;4977403;28;45455;-73
2022/11/06 10:31:37;;;;;;;;;12.00;11.00;;;;;11.94;71.41;100644.13;4978324;28;45353;-75
2022/11/06 10:34:05;;;;;;;;;10.00;10.00;;;;;12.01;71.59;100653.16;4973348;28;46497;-74
2022/11/06 10:36:45;;;;;;;;;13.00;12.00;;;;;11.75;71.20;100619.31;4978072;28;45669;-72
2022/11/06 10:39:21;;;;;;;;;9.67;9.00;;;;;11.92;71.23;100662.94;4979370;28;45393;-71
2022/11/06 10:41:53;;;;;;;;;7.67;7.67;;;;;11.63;71.16;100620.56;4965914;28;45568;-72
2022/11/06 10:44:36;;;;;;;;;11.33;9.33;;;;;10.97;71.25;100525.97;4977270;28;45543;-72
2022/11/06 10:47:22;;;;;;;;;7.33;7.33;;;;;11.75;71.55;100671.75;4981011;28;45338;-71
2022/11/06 10:49:55;;;;;;;;;13.00;10.67;;;;;11.82;71.86;100649.72;4979690;28;45371;-73
2022/11/06 10:52:33;;;;;;;;;7.00;7.00;;;;;11.87;71.55;100666.06;4982294;28;45634;-72
2022/11/06 10:55:25;;;;;;;;;12.67;11.00;;;;;11.90;71.79;100651.59;4982892;28;45813;-70
2022/11/06 10:57:56;;;;;;;;;12.00;9.00;;;;;11.90;71.71;100643.59;4991950;28;46239;-72
2022/11/06 11:00:22;;;;;;;;;11.67;9.00;;;;;11.28;71.38;100546.88;4978981;28;45305;-72
2022/11/06 11:02:51;;;;;;;;;9.67;9.00;;;;;11.76;71.18;100623.66;4994085;28;45735;-72
2022/11/06 11:05:21;;;;;;;;;11.00;10.00;;;;;11.90;70.99;100624.13;4981778;28;46472;-73
2022/11/06 11:07:48;;;;;;;;;8.33;8.33;;;;;11.87;71.71;100627.94;4973761;28;45548;-75
2022/11/06 11:10:22;;;;;;;;;12.00;9.67;;;;;11.77;71.03;100601.34;4968316;28;45462;-72
2022/11/06 11:12:55;;;;;;;;;3.00;3.00;;;;;11.75;70.95;100592.69;4980152;28;45588;-74
2022/11/06 11:15:22;;;;;;;;;10.67;8.00;;;;;11.86;71.72;100628.94;4980938;28;45631;-71
2022/11/06 11:18:16;;;;;;;;;10.33;9.00;;;;;11.87;71.91;100617.28;4982251;28;45780;-74
2022/11/06 11:20:43;;;;;;;;;10.33;9.00;;;;;11.51;71.73;100568.53;4979950;28;45378;-70
2022/11/06 11:23:21;;;;;;;;;8.67;8.67;;;;;10.99;71.81;100483.25;4981372;28;45237;-71
2022/11/06 11:25:49;;;;;;;;;11.00;8.00;;;;;11.75;71.99;100616.66;4980835;28;45782;-71
2022/11/06 11:28:26;;;;;;;;;10.67;9.00;;;;;11.36;71.91;100570.06;4979745;28;45407;-71
2022/11/06 11:31:12;;;;;;;;;9.00;9.00;;;;;11.70;72.11;100605.63;4979213;28;45484;-72
2022/11/06 11:33:40;;;;;;;;;9.00;9.00;;;;;11.39;72.91;100551.94;4976815;28;45627;-71
2022/11/06 11:36:08;;;;;;;;;9.00;8.67;;;;;11.37;72.88;100553.09;4977511;28;45547;-70
2022/11/06 11:38:37;;;;;;;;;9.00;8.67;;;;;11.41;72.48;100546.47;4979001;28;45329;-73
2022/11/06 11:41:07;;;;;;;;;10.00;10.00;;;;;11.58;73.33;100558.91;4986832;28;45291;-71
2022/11/06 11:43:33;;;;;;;;;12.67;10.00;;;;;11.54;73.71;100537.09;4979600;28;45384;-72
2022/11/06 11:46:04;;;;;;;;;10.67;10.67;;;;;11.31;73.58;100493.34;4979114;28;45816;-71
2022/11/06 11:48:47;;;;;;;;;16.67;13.67;;;;;11.61;73.51;100553.28;4995329;28;45464;-73